createdAt,value
2017-06-28T00:00:39.114Z,1002.57
2017-06-28T00:01:49.368Z,1002.59
2017-06-28T00:02:59.643Z,1002.56
2017-06-28T00:04:09.613Z,1002.53
2017-06-28T00:05:20.115Z,1002.48
2017-06-28T00:06:30.378Z,1002.43
2017-06-28T00:07:40.333Z,1002.44
2017-06-28T00:08:50.582Z,1002.42
2017-06-28T00:10:00.848Z,1002.43
2017-06-28T00:11:11.371Z,1002.37
2017-06-28T00:12:21.634Z,1002.37
2017-06-28T00:13:31.889Z,1002.37
2017-06-28T00:14:42.156Z,1002.32
2017-06-28T00:15:52.422Z,1002.36
2017-06-28T00:17:02.936Z,1002.36
2017-06-28T00:18:12.924Z,1002.33
2017-06-28T00:19:22.581Z,1002.3
2017-06-28T00:20:32.853Z,1002.26
2017-06-28T00:21:42.805Z,1002.28
2017-06-28T00:22:52.697Z,1002.25
2017-06-28T00:24:02.959Z,1002.25
2017-06-28T00:25:12.914Z,1002.25
2017-06-28T00:26:23.168Z,1002.24
2017-06-28T00:27:33.108Z,1002.23
2017-06-28T00:28:43.620Z,1002.21
2017-06-28T00:29:53.278Z,1002.17
2017-06-28T00:31:02.925Z,1002.17
2017-06-28T00:32:13.201Z,1002.15
2017-06-28T00:33:23.457Z,1002.1
2017-06-28T00:34:33.660Z,1002.01
2017-06-28T00:35:43.613Z,1002.02
2017-06-28T00:36:53.865Z,1001.99
2017-06-28T00:38:04.135Z,1001.97
2017-06-28T00:39:14.400Z,1001.94
2017-06-28T00:40:24.620Z,1001.94
2017-06-28T00:41:34.908Z,1001.96
2017-06-28T00:42:44.543Z,1001.99
2017-06-28T00:43:54.195Z,1001.94
2017-06-28T00:45:04.152Z,1002
2017-06-28T00:46:14.666Z,1001.93
2017-06-28T00:47:24.942Z,1001.95
2017-06-28T00:48:35.202Z,1001.89
2017-06-28T00:49:45.158Z,1001.88
2017-06-28T00:50:55.111Z,1001.83
2017-06-28T00:52:05.635Z,1001.81
2017-06-28T00:53:15.586Z,1001.77
2017-06-28T00:54:25.545Z,1001.76
2017-06-28T00:55:35.175Z,1001.75
2017-06-28T00:56:45.469Z,1001.77
2017-06-28T00:57:55.979Z,1001.75
2017-06-28T00:59:06.248Z,1001.68
2017-06-28T01:00:16.515Z,1001.67
2017-06-28T01:01:26.781Z,1001.61
2017-06-28T01:02:37.057Z,1001.6
2017-06-28T01:03:47.577Z,1001.53
2017-06-28T01:04:57.544Z,1001.51
2017-06-28T01:06:07.798Z,1001.49
2017-06-28T01:07:18.094Z,1001.45
2017-06-28T01:08:28.355Z,1001.45
2017-06-28T01:09:38.873Z,1001.4
2017-06-28T01:10:49.145Z,1001.45
2017-06-28T01:11:59.395Z,1001.38
2017-06-28T01:13:09.663Z,1001.38
2017-06-28T01:14:19.617Z,1001.33
2017-06-28T01:15:30.154Z,1001.33
2017-06-28T01:16:40.421Z,1001.29
2017-06-28T01:17:50.688Z,1001.3
2017-06-28T01:19:00.964Z,1001.26
2017-06-28T01:20:11.233Z,1001.24
2017-06-28T01:21:21.150Z,1001.26
2017-06-28T01:22:30.788Z,1001.32
2017-06-28T01:23:41.041Z,1001.29
2017-06-28T01:24:50.680Z,1001.3
2017-06-28T01:26:00.944Z,1001.32
2017-06-28T01:27:11.447Z,1001.32
2017-06-28T01:28:21.737Z,1001.29
2017-06-28T01:29:31.995Z,1001.25
2017-06-28T01:30:42.267Z,1001.22
2017-06-28T01:31:52.223Z,1001.2
2017-06-28T01:33:02.730Z,1001.23
2017-06-28T01:34:12.998Z,1001.24
2017-06-28T01:35:23.246Z,1001.25
2017-06-28T01:36:32.893Z,1001.24
2017-06-28T01:37:43.166Z,1001.29
2017-06-28T01:38:53.686Z,1001.31
2017-06-28T01:40:03.951Z,1001.25
2017-06-28T01:41:14.221Z,1001.29
2017-06-28T01:42:24.487Z,1001.22
2017-06-28T01:43:34.747Z,1001.23
2017-06-28T01:44:45.267Z,1001.17
2017-06-28T01:45:55.572Z,1001.19
2017-06-28T01:47:05.841Z,1001.18
2017-06-28T01:48:16.100Z,1001.11
2017-06-28T01:49:26.392Z,1001.08
2017-06-28T01:50:36.659Z,1001.11
2017-06-28T01:51:46.687Z,1001.1
2017-06-28T01:52:57.026Z,1001.1
2017-06-28T01:54:07.323Z,1001.09
2017-06-28T01:55:17.642Z,1001.04
2017-06-28T01:56:28.176Z,1001.03
2017-06-28T01:57:38.440Z,1000.97
2017-06-28T01:58:48.707Z,1000.96
2017-06-28T01:59:58.660Z,1000.98
2017-06-28T02:01:08.921Z,1000.91
2017-06-28T02:02:19.445Z,1000.9
2017-06-28T02:03:29.693Z,1000.89
2017-06-28T02:04:39.641Z,1000.93
2017-06-28T02:05:49.900Z,1000.9
2017-06-28T02:07:00.161Z,1000.85
2017-06-28T02:08:10.371Z,1000.89
2017-06-28T02:09:20.322Z,1000.87
2017-06-28T02:10:30.605Z,1000.83
2017-06-28T02:11:40.877Z,1000.83
2017-06-28T02:12:50.837Z,1000.8
2017-06-28T02:14:01.345Z,1000.82
2017-06-28T02:15:11.614Z,1000.74
2017-06-28T02:16:21.895Z,1000.79
2017-06-28T02:17:32.155Z,1000.77
2017-06-28T02:18:42.430Z,1000.78
2017-06-28T02:19:52.622Z,1000.74
2017-06-28T02:21:02.899Z,1000.73
2017-06-28T02:22:12.533Z,1000.69
2017-06-28T02:23:22.784Z,1000.71
2017-06-28T02:24:32.745Z,1000.76
2017-06-28T02:25:43.266Z,1000.77
2017-06-28T02:26:53.578Z,1000.76
2017-06-28T02:28:03.834Z,1000.82
2017-06-28T02:29:14.105Z,1000.82
2017-06-28T02:30:24.368Z,1000.84
2017-06-28T02:31:34.868Z,1000.84
2017-06-28T02:32:44.839Z,1000.86
2017-06-28T02:33:54.785Z,1000.89
2017-06-28T02:35:05.060Z,1000.87
2017-06-28T02:36:15.322Z,1000.84
2017-06-28T02:37:25.541Z,1000.85
2017-06-28T02:38:35.494Z,1000.82
2017-06-28T02:39:45.133Z,1000.78
2017-06-28T02:40:55.397Z,1000.75
2017-06-28T02:42:05.661Z,1000.75
2017-06-28T02:43:16.159Z,1000.69
2017-06-28T02:44:26.118Z,1000.69
2017-06-28T02:45:36.056Z,1000.7
2017-06-28T02:46:46.318Z,1000.63
2017-06-28T02:47:56.575Z,1000.65
2017-06-28T02:49:07.135Z,1000.67
2017-06-28T02:50:17.389Z,1000.7
2017-06-28T02:51:27.344Z,1000.7
2017-06-28T02:52:37.601Z,1000.72
2017-06-28T02:53:47.581Z,1000.71
2017-06-28T02:54:58.079Z,1000.74
2017-06-28T02:56:08.028Z,1000.68
2017-06-28T02:57:18.007Z,1000.69
2017-06-28T02:58:27.950Z,1000.71
2017-06-28T02:59:38.202Z,1000.72
2017-06-28T03:00:48.408Z,1000.67
2017-06-28T03:01:58.679Z,1000.68
2017-06-28T03:03:08.633Z,1000.68
2017-06-28T03:04:18.594Z,1000.63
2017-06-28T03:05:28.248Z,1000.61
2017-06-28T03:06:38.123Z,1000.59
2017-06-28T03:07:48.389Z,1000.58
2017-06-28T03:08:58.644Z,1000.54
2017-06-28T03:10:08.905Z,1000.54
2017-06-28T03:11:18.850Z,1000.52
2017-06-28T03:12:29.371Z,1000.57
2017-06-28T03:13:39.628Z,1000.49
2017-06-28T03:14:49.599Z,1000.51
2017-06-28T03:15:59.559Z,1000.51
2017-06-28T03:17:09.820Z,1000.47
2017-06-28T03:18:20.335Z,1000.46
2017-06-28T03:19:30.294Z,1000.46
2017-06-28T03:20:40.550Z,1000.47
2017-06-28T03:21:50.511Z,1000.46
2017-06-28T03:23:00.758Z,1000.48
2017-06-28T03:24:10.960Z,1000.46
2017-06-28T03:25:20.613Z,1000.51
2017-06-28T03:26:30.568Z,1000.48
2017-06-28T03:27:40.545Z,1000.46
2017-06-28T03:28:50.810Z,1000.49
2017-06-28T03:30:01.344Z,1000.48
2017-06-28T03:31:11.297Z,1000.52
2017-06-28T03:32:21.561Z,1000.49
2017-06-28T03:33:31.521Z,1000.44
2017-06-28T03:34:41.774Z,1000.4
2017-06-28T03:35:52.291Z,1000.41
2017-06-28T03:37:02.568Z,1000.39
2017-06-28T03:38:12.821Z,1000.43
2017-06-28T03:39:23.073Z,1000.38
2017-06-28T03:40:33.025Z,1000.39
2017-06-28T03:41:43.539Z,1000.34
2017-06-28T03:42:53.500Z,1000.31
2017-06-28T03:44:03.776Z,1000.33
2017-06-28T03:45:14.049Z,1000.3
2017-06-28T03:46:24.306Z,1000.24
2017-06-28T03:47:34.824Z,1000.25
2017-06-28T03:48:45.090Z,1000.2
2017-06-28T03:49:55.043Z,1000.16
2017-06-28T03:51:05.305Z,1000.14
2017-06-28T03:52:15.561Z,1000.12
2017-06-28T03:53:26.070Z,1000.05
2017-06-28T03:54:36.019Z,1000.08
2017-06-28T03:55:46.274Z,1000.01
2017-06-28T03:56:56.541Z,999.97
2017-06-28T03:58:06.797Z,999.99
2017-06-28T03:59:17.309Z,1000.02
2017-06-28T04:00:27.259Z,1000.04
2017-06-28T04:01:37.538Z,1000.13
2017-06-28T04:02:47.493Z,1000.1
2017-06-28T04:03:57.744Z,1000.08
2017-06-28T04:05:07.944Z,1000.07
2017-06-28T04:06:18.200Z,1000.06
2017-06-28T04:07:28.148Z,1000.03
2017-06-28T04:08:38.410Z,999.99
2017-06-28T04:09:48.678Z,999.89
2017-06-28T04:10:58.877Z,999.84
2017-06-28T04:12:09.140Z,999.81
2017-06-28T04:13:19.406Z,999.83
2017-06-28T04:14:29.356Z,999.74
2017-06-28T04:15:39.618Z,999.74
2017-06-28T04:16:50.143Z,999.7
2017-06-28T04:18:00.402Z,999.71
2017-06-28T04:19:10.661Z,999.74
2017-06-28T04:20:20.925Z,999.74
2017-06-28T04:21:31.175Z,999.7
2017-06-28T04:22:41.682Z,999.73
2017-06-28T04:23:51.318Z,999.74
2017-06-28T04:25:01.581Z,999.75
2017-06-28T04:26:11.536Z,999.75
2017-06-28T04:27:21.474Z,999.78
2017-06-28T04:28:31.983Z,999.75
2017-06-28T04:29:41.336Z,999.74
2017-06-28T04:30:51.598Z,999.79
2017-06-28T04:32:01.869Z,999.76
2017-06-28T04:33:12.142Z,999.77
2017-06-28T04:34:22.706Z,999.78
2017-06-28T04:35:32.973Z,999.74
2017-06-28T04:36:42.624Z,999.68
2017-06-28T04:37:52.889Z,999.67
2017-06-28T04:39:03.162Z,999.68
2017-06-28T04:40:13.680Z,999.62
2017-06-28T04:41:23.950Z,999.67
2017-06-28T04:42:34.215Z,999.65
2017-06-28T04:43:44.710Z,999.67
2017-06-28T04:44:54.658Z,999.65
2017-06-28T04:46:04.875Z,999.63
2017-06-28T04:47:15.142Z,999.63
2017-06-28T04:48:25.106Z,999.59
2017-06-28T04:49:35.087Z,999.55
2017-06-28T04:50:45.062Z,999.56
2017-06-28T04:51:55.255Z,999.55
2017-06-28T04:53:05.499Z,999.53
2017-06-28T04:54:15.447Z,999.51
2017-06-28T04:55:25.740Z,999.49
2017-06-28T04:56:36.018Z,999.45
2017-06-28T04:57:46.524Z,999.44
2017-06-28T04:58:56.804Z,999.44
2017-06-28T05:00:06.766Z,999.45
2017-06-28T05:01:17.036Z,999.48
2017-06-28T05:02:27.366Z,999.52
2017-06-28T05:03:37.883Z,999.54
2017-06-28T05:04:48.168Z,999.56
2017-06-28T05:05:58.450Z,999.56
2017-06-28T05:07:08.711Z,999.57
2017-06-28T05:08:18.993Z,999.57
2017-06-28T05:09:29.196Z,999.53
2017-06-28T05:10:39.469Z,999.54
2017-06-28T05:11:49.739Z,999.53
2017-06-28T05:12:59.390Z,999.55
2017-06-28T05:14:09.038Z,999.55
2017-06-28T05:15:19.545Z,999.59
2017-06-28T05:16:29.504Z,999.61
2017-06-28T05:17:39.747Z,999.62
2017-06-28T05:18:49.378Z,999.64
2017-06-28T05:19:59.630Z,999.61
2017-06-28T05:21:09.849Z,999.58
2017-06-28T05:22:20.110Z,999.58
2017-06-28T05:23:30.356Z,999.58
2017-06-28T05:24:40.626Z,999.55
2017-06-28T05:25:50.892Z,999.57
2017-06-28T05:27:01.412Z,999.55
2017-06-28T05:28:11.052Z,999.58
2017-06-28T05:29:21.008Z,999.53
2017-06-28T05:30:31.258Z,999.5
2017-06-28T05:31:41.212Z,999.54
2017-06-28T05:32:51.408Z,999.52
2017-06-28T05:34:01.365Z,999.56
2017-06-28T05:35:11.652Z,999.56
2017-06-28T05:36:21.950Z,999.54
2017-06-28T05:37:32.217Z,999.49
2017-06-28T05:38:42.418Z,999.5
2017-06-28T05:39:52.689Z,999.48
2017-06-28T05:41:03.021Z,999.48
2017-06-28T05:42:13.285Z,999.42
2017-06-28T05:43:23.584Z,999.4
2017-06-28T05:44:34.327Z,999.35
2017-06-28T05:45:44.598Z,999.32
2017-06-28T05:46:54.857Z,999.29
2017-06-28T05:48:04.820Z,999.27
2017-06-28T05:49:15.101Z,999.28
2017-06-28T05:50:25.650Z,999.31
2017-06-28T05:51:35.952Z,999.31
2017-06-28T05:52:46.223Z,999.3
2017-06-28T05:53:56.504Z,999.32
2017-06-28T05:55:06.767Z,999.29
2017-06-28T05:56:16.976Z,999.28
2017-06-28T05:57:27.240Z,999.25
2017-06-28T05:58:37.502Z,999.23
2017-06-28T05:59:47.770Z,999.22
2017-06-28T06:00:57.712Z,999.26
2017-06-28T06:02:08.241Z,999.2
2017-06-28T06:03:18.522Z,999.21
2017-06-28T06:04:28.180Z,999.22
2017-06-28T06:05:38.470Z,999.22
2017-06-28T06:06:48.436Z,999.2
2017-06-28T06:07:58.949Z,999.23
2017-06-28T06:09:08.907Z,999.19
2017-06-28T06:10:19.185Z,999.17
2017-06-28T06:11:29.139Z,999.14
2017-06-28T06:12:39.088Z,999.1
2017-06-28T06:13:49.585Z,999.09
2017-06-28T06:14:59.848Z,999.03
2017-06-28T06:16:10.105Z,998.99
2017-06-28T06:17:20.366Z,999.02
2017-06-28T06:18:30.636Z,998.96
2017-06-28T06:19:41.154Z,998.94
2017-06-28T06:20:51.026Z,998.88
2017-06-28T06:22:01.292Z,998.85
2017-06-28T06:23:11.559Z,998.85
2017-06-28T06:24:21.222Z,998.85
2017-06-28T06:25:31.741Z,998.89
2017-06-28T06:26:42.002Z,998.86
2017-06-28T06:27:51.963Z,998.83
2017-06-28T06:29:02.223Z,998.72
2017-06-28T06:30:12.528Z,998.7
2017-06-28T06:31:23.066Z,998.67
2017-06-28T06:32:33.035Z,998.62
2017-06-28T06:33:43.300Z,998.6
2017-06-28T06:34:52.952Z,998.62
2017-06-28T06:36:03.246Z,998.61
2017-06-28T06:37:13.688Z,998.56
2017-06-28T06:38:23.651Z,998.56
2017-06-28T06:39:33.956Z,998.56
2017-06-28T06:40:44.230Z,998.55
2017-06-28T06:41:54.523Z,998.55
2017-06-28T06:43:05.045Z,998.55
2017-06-28T06:44:15.347Z,998.55
2017-06-28T06:45:25.652Z,998.55
2017-06-28T06:46:35.934Z,998.56
2017-06-28T06:47:46.252Z,998.53
2017-06-28T06:48:56.770Z,998.54
2017-06-28T06:50:06.748Z,998.54
2017-06-28T06:51:17.004Z,998.55
2017-06-28T06:52:26.961Z,998.48
2017-06-28T06:53:36.607Z,998.48
2017-06-28T06:54:46.509Z,998.5
2017-06-28T06:55:56.796Z,998.48
2017-06-28T06:57:07.049Z,998.47
2017-06-28T06:58:17.027Z,998.51
2017-06-28T06:59:27.342Z,998.46
2017-06-28T07:00:38.209Z,998.42
2017-06-28T07:01:48.181Z,998.37
2017-06-28T07:02:58.450Z,998.36
2017-06-28T07:04:08.710Z,998.35
2017-06-28T07:05:19.051Z,998.32
2017-06-28T07:06:29.623Z,998.32
2017-06-28T07:07:39.911Z,998.33
2017-06-28T07:08:49.247Z,998.3
2017-06-28T07:09:58.899Z,998.29
2017-06-28T07:11:09.202Z,998.31
2017-06-28T07:12:19.417Z,998.32
2017-06-28T07:13:29.391Z,998.32
2017-06-28T07:14:39.678Z,998.37
2017-06-28T07:15:49.941Z,998.37
2017-06-28T07:17:00.220Z,998.34
2017-06-28T07:18:10.728Z,998.38
2017-06-28T07:19:21.052Z,998.35
2017-06-28T07:20:31.344Z,998.33
2017-06-28T07:21:41.612Z,998.32
2017-06-28T07:22:51.269Z,998.29
2017-06-28T07:24:01.803Z,998.33
2017-06-28T07:25:12.067Z,998.34
2017-06-28T07:26:22.038Z,998.34
2017-06-28T07:27:31.729Z,998.3
2017-06-28T07:28:41.855Z,998.34
2017-06-28T07:29:52.090Z,998.34
2017-06-28T07:31:02.363Z,998.33
2017-06-28T07:32:12.629Z,998.32
2017-06-28T07:33:22.585Z,998.3
2017-06-28T07:34:32.550Z,998.29
2017-06-28T07:35:42.779Z,998.22
2017-06-28T07:36:53.050Z,998.24
2017-06-28T07:38:03.012Z,998.21
2017-06-28T07:39:13.298Z,998.22
2017-06-28T07:40:23.581Z,998.28
2017-06-28T07:41:34.120Z,998.17
2017-06-28T07:42:44.393Z,998.2
2017-06-28T07:43:54.684Z,998.16
2017-06-28T07:45:04.960Z,998.14
2017-06-28T07:46:14.929Z,998.1
2017-06-28T07:47:25.437Z,998.1
2017-06-28T07:48:35.719Z,998.11
2017-06-28T07:49:45.975Z,998.08
2017-06-28T07:50:55.947Z,998.1
2017-06-28T07:52:05.913Z,998.03
2017-06-28T07:53:16.520Z,997.99
2017-06-28T07:54:26.540Z,998.05
2017-06-28T07:55:36.503Z,997.98
2017-06-28T07:56:46.807Z,997.98
2017-06-28T07:57:57.110Z,997.95
2017-06-28T07:59:07.644Z,997.91
2017-06-28T08:00:17.955Z,997.89
2017-06-28T08:01:28.229Z,997.9
2017-06-28T08:02:38.514Z,997.89
2017-06-28T08:03:48.806Z,997.87
2017-06-28T08:04:59.670Z,997.82
2017-06-28T08:06:09.947Z,997.8
2017-06-28T08:07:19.925Z,997.8
2017-06-28T08:08:30.191Z,997.77
2017-06-28T08:09:40.483Z,997.8
2017-06-28T08:10:51.011Z,997.83
2017-06-28T08:12:00.700Z,997.81
2017-06-28T08:13:10.999Z,997.79
2017-06-28T08:14:21.298Z,997.83
2017-06-28T08:15:31.581Z,997.81
2017-06-28T08:16:42.123Z,997.76
2017-06-28T08:17:52.113Z,997.77
2017-06-28T08:19:02.076Z,997.81
2017-06-28T08:20:12.345Z,997.77
2017-06-28T08:21:22.033Z,997.75
2017-06-28T08:22:32.555Z,997.71
2017-06-28T08:23:42.842Z,997.73
2017-06-28T08:24:53.120Z,997.7
2017-06-28T08:26:03.083Z,997.65
2017-06-28T08:27:13.390Z,997.61
2017-06-28T08:28:23.910Z,997.54
2017-06-28T08:29:34.228Z,997.58
2017-06-28T08:30:44.241Z,997.48
2017-06-28T08:31:54.547Z,997.57
2017-06-28T08:33:04.515Z,997.55
2017-06-28T08:34:15.052Z,997.52
2017-06-28T08:35:24.737Z,997.53
2017-06-28T08:36:34.701Z,997.53
2017-06-28T08:37:44.969Z,997.5
2017-06-28T08:38:55.249Z,997.52
2017-06-28T08:40:05.809Z,997.5
2017-06-28T08:41:15.770Z,997.43
2017-06-28T08:42:26.038Z,997.43
2017-06-28T08:43:36.010Z,997.4
2017-06-28T08:44:45.664Z,997.35
2017-06-28T08:46:00.636Z,997.38
2017-06-28T08:47:10.947Z,997.37
2017-06-28T08:48:21.238Z,997.38
2017-06-28T08:49:31.530Z,997.31
2017-06-28T08:50:41.812Z,997.31
2017-06-28T08:51:52.333Z,997.35
2017-06-28T08:53:02.612Z,997.33
2017-06-28T08:54:12.911Z,997.28
2017-06-28T08:55:23.207Z,997.33
2017-06-28T08:56:33.479Z,997.33
2017-06-28T08:57:44.013Z,997.35
2017-06-28T08:58:54.336Z,997.28
2017-06-28T09:00:04.334Z,997.25
2017-06-28T09:01:14.621Z,997.31
2017-06-28T09:02:24.624Z,997.27
2017-06-28T09:03:35.161Z,997.21
2017-06-28T09:04:45.441Z,997.23
2017-06-28T09:05:55.731Z,997.25
2017-06-28T09:07:06.060Z,997.15
2017-06-28T09:08:16.328Z,997.11
2017-06-28T09:09:26.602Z,997.03
2017-06-28T09:10:36.875Z,997.02
2017-06-28T09:11:47.160Z,997.05
2017-06-28T09:12:57.429Z,996.94
2017-06-28T09:14:07.715Z,996.89
2017-06-28T09:15:18.282Z,996.93
2017-06-28T09:16:28.817Z,996.91
2017-06-28T09:17:39.114Z,996.94
2017-06-28T09:18:49.368Z,996.95
2017-06-28T09:19:59.335Z,996.93
2017-06-28T09:21:09.896Z,996.92
2017-06-28T09:22:20.169Z,996.91
2017-06-28T09:23:30.456Z,996.88
2017-06-28T09:24:40.557Z,996.92
2017-06-28T09:25:50.831Z,996.93
2017-06-28T09:27:01.050Z,996.88
2017-06-28T09:28:11.349Z,996.94
2017-06-28T09:29:20.709Z,996.92
2017-06-28T09:30:30.713Z,996.93
2017-06-28T09:31:41.009Z,996.88
2017-06-28T09:32:51.539Z,996.95
2017-06-28T09:34:01.518Z,996.92
2017-06-28T09:35:11.497Z,996.92
2017-06-28T09:36:21.778Z,996.95
2017-06-28T09:37:31.754Z,996.9
2017-06-28T09:38:42.283Z,996.9
2017-06-28T09:39:52.576Z,996.86
2017-06-28T09:41:02.858Z,996.91
2017-06-28T09:42:12.832Z,996.82
2017-06-28T09:43:23.124Z,996.83
2017-06-28T09:44:33.652Z,996.75
2017-06-28T09:45:43.636Z,996.7
2017-06-28T09:46:53.956Z,996.75
2017-06-28T09:48:04.355Z,996.76
2017-06-28T09:49:14.987Z,996.77
2017-06-28T09:50:25.561Z,996.8
2017-06-28T09:51:35.920Z,996.74
2017-06-28T09:52:46.210Z,996.64
2017-06-28T09:53:56.182Z,996.7
2017-06-28T09:55:05.861Z,996.69
2017-06-28T09:56:16.119Z,996.62
2017-06-28T09:57:26.132Z,996.71
2017-06-28T09:58:36.429Z,996.71
2017-06-28T09:59:46.700Z,996.66
2017-06-28T10:00:56.995Z,996.72
2017-06-28T10:02:07.539Z,996.63
2017-06-28T10:03:17.855Z,996.7
2017-06-28T10:04:28.147Z,996.66
2017-06-28T10:05:38.120Z,996.54
2017-06-28T10:06:48.094Z,996.6
2017-06-28T10:07:58.623Z,996.47
2017-06-28T10:09:09.050Z,996.56
2017-06-28T10:10:19.567Z,996.5
2017-06-28T10:11:29.815Z,996.43
2017-06-28T10:12:40.095Z,996.39
2017-06-28T10:13:50.699Z,996.36
2017-06-28T10:15:00.671Z,996.32
2017-06-28T10:16:10.957Z,996.26
2017-06-28T10:17:20.953Z,996.26
2017-06-28T10:18:30.632Z,996.3
2017-06-28T10:19:40.866Z,996.23
2017-06-28T10:20:50.975Z,996.18
2017-06-28T10:22:01.259Z,996.14
2017-06-28T10:23:11.544Z,996.16
2017-06-28T10:24:21.836Z,996.17
2017-06-28T10:25:32.379Z,996.2
2017-06-28T10:26:42.678Z,996.12
2017-06-28T10:27:52.337Z,996.09
2017-06-28T10:29:02.337Z,996.13
2017-06-28T10:30:12.031Z,996.06
2017-06-28T10:31:22.559Z,996.09
2017-06-28T10:32:32.846Z,996.1
2017-06-28T10:33:42.854Z,996.09
2017-06-28T10:34:53.139Z,996.02
2017-06-28T10:36:03.425Z,996.09
2017-06-28T10:37:13.963Z,996.02
2017-06-28T10:38:23.638Z,995.95
2017-06-28T10:39:33.929Z,995.98
2017-06-28T10:40:43.609Z,995.99
2017-06-28T10:41:53.940Z,996.01
2017-06-28T10:43:04.509Z,996.02
2017-06-28T10:44:14.491Z,996.02
2017-06-28T10:45:24.785Z,996.04
2017-06-28T10:46:35.076Z,996.02
2017-06-28T10:47:45.055Z,996.09
2017-06-28T10:48:55.601Z,996.05
2017-06-28T10:50:05.873Z,995.98
2017-06-28T10:51:15.835Z,996.01
2017-06-28T10:52:25.807Z,996
2017-06-28T10:53:36.071Z,995.94
2017-06-28T10:54:46.306Z,995.92
2017-06-28T10:55:56.600Z,996
2017-06-28T10:57:06.320Z,995.95
2017-06-28T10:58:16.613Z,995.92
2017-06-28T10:59:26.937Z,995.92
2017-06-28T11:00:37.152Z,995.94
2017-06-28T11:01:47.449Z,995.97
2017-06-28T11:02:57.726Z,995.89
2017-06-28T11:04:08.032Z,995.74
2017-06-28T11:05:18.349Z,995.68
2017-06-28T11:06:28.576Z,995.68
2017-06-28T11:07:38.881Z,995.69
2017-06-28T11:08:49.168Z,995.59
2017-06-28T11:09:59.447Z,995.69
2017-06-28T11:11:09.437Z,995.73
2017-06-28T11:12:19.958Z,995.66
2017-06-28T11:13:30.236Z,995.72
2017-06-28T11:14:39.927Z,995.69
2017-06-28T11:15:49.918Z,995.77
2017-06-28T11:17:00.201Z,995.8
2017-06-28T11:18:10.784Z,995.67
2017-06-28T11:19:21.091Z,995.72
2017-06-28T11:20:31.052Z,995.64
2017-06-28T11:21:41.318Z,995.64
2017-06-28T11:22:51.316Z,995.67
2017-06-28T11:24:01.927Z,995.72
2017-06-28T11:25:11.900Z,995.67
2017-06-28T11:26:21.876Z,995.66
2017-06-28T11:27:32.151Z,995.69
2017-06-28T11:28:42.446Z,995.68
2017-06-28T11:29:53.041Z,995.59
2017-06-28T11:31:03.022Z,995.63
2017-06-28T11:32:13.305Z,995.63
2017-06-28T11:33:23.281Z,995.64
2017-06-28T11:34:33.607Z,995.68
2017-06-28T11:35:44.160Z,995.68
2017-06-28T11:36:54.487Z,995.62
2017-06-28T11:38:04.779Z,995.61
2017-06-28T11:39:15.124Z,995.52
2017-06-28T11:40:25.435Z,995.71
2017-06-28T11:41:35.996Z,995.68
2017-06-28T11:42:45.944Z,995.61
2017-06-28T11:43:56.261Z,995.56
2017-06-28T11:45:06.547Z,995.58
2017-06-28T11:46:16.548Z,995.64
2017-06-28T11:47:27.099Z,995.61
2017-06-28T11:48:37.386Z,995.59
2017-06-28T11:49:47.706Z,995.6
2017-06-28T11:50:57.987Z,995.59
2017-06-28T11:52:08.233Z,995.55
2017-06-28T11:53:18.447Z,995.5
2017-06-28T11:54:28.752Z,995.39
2017-06-28T11:55:39.045Z,995.41
2017-06-28T11:56:49.317Z,995.4
2017-06-28T11:57:59.618Z,995.46
2017-06-28T11:59:10.218Z,995.46
2017-06-28T12:00:20.261Z,995.5
2017-06-28T12:01:30.576Z,995.48
2017-06-28T12:02:40.562Z,995.44
2017-06-28T12:03:50.858Z,995.34
2017-06-28T12:05:01.382Z,995.37
2017-06-28T12:06:11.729Z,995.4
2017-06-28T12:07:22.051Z,995.32
2017-06-28T12:08:32.356Z,995.34
2017-06-28T12:09:42.345Z,995.37
2017-06-28T12:10:52.919Z,995.31
2017-06-28T12:12:03.227Z,995.32
2017-06-28T12:13:13.522Z,995.36
2017-06-28T12:14:23.812Z,995.36
2017-06-28T12:15:34.117Z,995.33
2017-06-28T12:16:44.343Z,995.35
2017-06-28T12:17:54.623Z,995.28
2017-06-28T12:19:04.604Z,995.31
2017-06-28T12:20:14.912Z,995.3
2017-06-28T12:21:25.213Z,995.21
2017-06-28T12:22:35.734Z,995.15
2017-06-28T12:23:46.016Z,995.16
2017-06-28T12:24:56.307Z,995.18
2017-06-28T12:26:06.612Z,995.19
2017-06-28T12:27:16.584Z,995.18
2017-06-28T12:28:27.109Z,995.14
2017-06-28T12:29:37.394Z,995.09
2017-06-28T12:30:47.385Z,995.11
2017-06-28T12:31:57.352Z,995.1
2017-06-28T12:33:07.642Z,995.1
2017-06-28T12:34:18.168Z,995.06
2017-06-28T12:35:28.440Z,994.93
2017-06-28T12:36:38.721Z,994.92
2017-06-28T12:37:49.000Z,994.92
2017-06-28T12:38:59.287Z,994.86
2017-06-28T12:40:09.820Z,994.82
2017-06-28T12:41:19.867Z,994.79
2017-06-28T12:42:29.839Z,994.78
2017-06-28T12:43:39.817Z,994.76
2017-06-28T12:44:49.820Z,994.81
2017-06-28T12:46:00.349Z,994.87
2017-06-28T12:47:10.312Z,994.87
2017-06-28T12:48:20.585Z,994.87
2017-06-28T12:49:30.863Z,994.83
2017-06-28T12:50:40.845Z,994.78
2017-06-28T12:51:51.060Z,994.81
2017-06-28T12:53:01.344Z,994.79
2017-06-28T12:54:11.627Z,994.79
2017-06-28T12:55:21.927Z,994.76
2017-06-28T12:56:32.221Z,994.83
2017-06-28T12:57:42.755Z,994.78
2017-06-28T12:58:53.036Z,994.74
2017-06-28T13:00:03.329Z,994.75
2017-06-28T13:01:13.591Z,994.69
2017-06-28T13:02:23.568Z,994.72
2017-06-28T13:03:34.090Z,994.75
2017-06-28T13:04:44.380Z,994.75
2017-06-28T13:05:54.686Z,994.76
2017-06-28T13:07:04.964Z,994.84
2017-06-28T13:08:15.279Z,994.79
2017-06-28T13:09:25.803Z,994.84
2017-06-28T13:10:36.084Z,994.93
2017-06-28T13:11:46.366Z,994.84
2017-06-28T13:12:56.649Z,994.91
2017-06-28T13:14:06.939Z,994.83
2017-06-28T13:15:17.482Z,994.75
2017-06-28T13:16:27.480Z,994.74
2017-06-28T13:17:37.785Z,994.72
2017-06-28T13:18:47.451Z,994.7
2017-06-28T13:19:57.741Z,994.69
2017-06-28T13:21:08.294Z,994.7
2017-06-28T13:22:18.587Z,994.7
2017-06-28T13:23:28.901Z,994.71
2017-06-28T13:24:39.163Z,994.68
2017-06-28T13:25:49.425Z,994.68
2017-06-28T13:26:59.326Z,994.7
2017-06-28T13:28:08.985Z,994.66
2017-06-28T13:29:19.277Z,994.64
2017-06-28T13:30:29.568Z,994.62
2017-06-28T13:31:39.840Z,994.71
2017-06-28T13:32:54.066Z,994.73
2017-06-28T13:34:04.341Z,994.68
2017-06-28T13:35:14.620Z,994.66
2017-06-28T13:36:24.588Z,994.63
2017-06-28T13:37:34.882Z,994.67
2017-06-28T13:38:44.814Z,994.66
2017-06-28T13:39:55.107Z,994.69
2017-06-28T13:41:05.114Z,994.67
2017-06-28T13:42:15.420Z,994.63
2017-06-28T13:43:25.702Z,994.64
2017-06-28T13:44:36.252Z,994.62
2017-06-28T13:45:46.516Z,994.59
2017-06-28T13:46:56.793Z,994.59
2017-06-28T13:48:06.770Z,994.59
2017-06-28T13:49:17.048Z,994.55
2017-06-28T13:50:27.277Z,994.55
2017-06-28T13:51:37.558Z,994.57
2017-06-28T13:52:47.506Z,994.61
2017-06-28T13:53:57.764Z,994.57
2017-06-28T13:55:08.027Z,994.57
2017-06-28T13:56:18.243Z,994.54
2017-06-28T13:57:28.223Z,994.52
2017-06-28T13:58:38.508Z,994.49
2017-06-28T13:59:48.495Z,994.4
2017-06-28T14:00:58.774Z,994.43
2017-06-28T14:02:09.321Z,994.4
2017-06-28T14:03:19.609Z,994.34
2017-06-28T14:04:29.598Z,994.3
2017-06-28T14:05:39.853Z,994.31
2017-06-28T14:06:50.123Z,994.24
2017-06-28T14:08:01.871Z,994.25
2017-06-28T14:09:11.515Z,994.24
2017-06-28T14:10:21.514Z,994.22
2017-06-28T14:11:31.775Z,994.2
2017-06-28T14:12:41.761Z,994.2
2017-06-28T14:13:52.288Z,994.17
2017-06-28T14:15:02.568Z,994.29
2017-06-28T14:16:12.841Z,994.33
2017-06-28T14:17:22.811Z,994.37
2017-06-28T14:18:33.089Z,994.31
2017-06-28T14:19:43.626Z,994.2
2017-06-28T14:20:53.589Z,994.14
2017-06-28T14:22:03.866Z,994.18
2017-06-28T14:23:14.139Z,994.09
2017-06-28T14:24:24.435Z,993.99
2017-06-28T14:25:34.954Z,993.9
2017-06-28T14:26:45.231Z,993.79
2017-06-28T14:27:55.493Z,993.84
2017-06-28T14:29:05.762Z,993.86
2017-06-28T14:30:15.730Z,993.81
2017-06-28T14:31:26.253Z,993.78